KCOU/COU METAR and TAF weather

Enter ICAO airport designator
Station Type Date Time Source
KCOU METAR 2018/12/11 00:54 UTC NOAA

KCOU 110054Z 21008KT 10SM CLR M01/M07 A3027 RMK AO2 SLP261 T10111072


Station Type Date Time Source
KCOU Decoded METAR 2018/12/11 00:54 UTC NOAA

COLUMBIA REGIONAL AIRPORT, MO, United States (KCOU) 38-49N 092-13W 271M
Dec 10, 2018 - 07:54 PM EST / 2018.12.11 0054 UTC
Wind: from the SSW (210 degrees) at 9 MPH (8 KT):0
Visibility: 10 mile(s):0
Sky conditions: clear
Temperature: 30.0 F (-1.1 C)
Windchill: 21 F (-6 C):1
Dew Point: 19.0 F (-7.2 C)
Relative Humidity: 63%
Pressure (altimeter): 30.27 in. Hg (1025 hPa)
ob: KCOU 110054Z 21008KT 10SM CLR M01/M07 A3027 RMK AO2 SLP261 T10111072
cycle: 1

Station Type Date Time Source
KCOU TAF 2018/12/10 18:24 UTC NOAA

TAF KCOU 101721Z 1018/1118 24007KT P6SM FEW250
FM111500 22010KT P6SM FEW250


Example: see airport list